Time;durP1;ratioP1;P1;durP2;ratioP2;P2;SDS_P1;SDS_P2;PMS_P1;PMS_P2;Temp;Humidity;BMP_temperature;BMP_pressure;BME280_temperature;BME280_humidity;BME280_pressure;Samples;Min_cycle;Max_cycle;Signal;HPM_P1;HPM_P2
2023/08/29 00:00:56;;;;;;;10.10;3.80;;;;;;;22.77;nan;99099.88;5029383;28;20017;-70
2023/08/29 00:03:22;;;;;;;7.88;3.63;;;;;;;;;;5026678;28;20077;-70
2023/08/29 00:05:47;;;;;;;6.45;3.40;;;;;;;22.70;nan;99059.41;5029924;28;20092;-69
2023/08/29 00:08:12;;;;;;;6.55;3.45;;;;;;;22.72;nan;99097.41;5028644;28;20180;-69
2023/08/29 00:10:38;;;;;;;8.80;4.10;;;;;;;22.67;nan;99085.03;5028519;28;20582;-70
2023/08/29 00:13:03;;;;;;;5.60;3.72;;;;;;;22.62;nan;99089.81;5029086;28;20099;-71
2023/08/29 00:15:29;;;;;;;8.40;4.38;;;;;;;22.63;nan;99067.25;5029917;28;20021;-71
2023/08/29 00:17:54;;;;;;;9.50;3.78;;;;;;;22.61;nan;99145.41;5028465;28;20369;-70
2023/08/29 00:20:19;;;;;;;11.18;4.18;;;;;;;22.51;nan;99105.59;5026928;28;20025;-70
2023/08/29 00:22:45;;;;;;;12.18;4.63;;;;;;;22.48;nan;99114.31;5027217;28;20020;-70
2023/08/29 00:25:10;;;;;;;7.68;4.22;;;;;;;22.49;nan;99150.75;5027852;28;20029;-70
2023/08/29 00:27:35;;;;;;;8.52;4.00;;;;;;;22.51;nan;99148.53;5026972;28;20100;-70
2023/08/29 00:30:01;;;;;;;8.45;4.07;;;;;;;;;;5026698;28;20387;-70
2023/08/29 00:32:26;;;;;;;7.63;4.40;;;;;;;22.51;nan;99140.47;5027724;28;20025;-69
2023/08/29 00:34:51;;;;;;;8.02;3.95;;;;;;;22.54;nan;99165.84;5028147;28;20032;-70
2023/08/29 00:37:17;;;;;;;14.35;4.40;;;;;;;22.60;nan;99140.34;5028242;28;20043;-69
2023/08/29 00:39:42;;;;;;;11.00;4.38;;;;;;;22.68;nan;99169.00;5010081;28;20520;-69
2023/08/29 00:42:08;;;;;;;8.18;4.13;;;;;;;22.68;nan;99234.16;5026276;28;20029;-69
2023/08/29 00:44:34;;;;;;;10.68;4.00;;;;;;;;;;5029034;28;20037;-70
2023/08/29 00:46:59;;;;;;;11.73;4.40;;;;;;;22.85;nan;99163.38;5028129;28;20028;-69
2023/08/29 00:49:26;;;;;;;8.38;3.92;;;;;;;22.91;nan;99156.69;5028693;28;20704;-70
2023/08/29 00:51:53;;;;;;;10.23;4.32;;;;;;;22.93;nan;99142.91;5027809;28;20033;-69
2023/08/29 00:54:20;;;;;;;8.95;3.78;;;;;;;23.03;nan;99176.59;5027386;28;20036;-69
2023/08/29 00:56:49;;;;;;;10.93;4.18;;;;;;;23.00;nan;99206.81;5027856;28;20025;-69
2023/08/29 00:59:14;;;;;;;7.63;4.20;;;;;;;23.05;nan;99167.06;5028737;28;20048;-70
2023/08/29 01:01:40;;;;;;;12.93;4.95;;;;;;;22.92;nan;99134.06;5028001;28;20057;-69
2023/08/29 01:04:08;;;;;;;9.18;4.75;;;;;;;23.02;nan;99194.59;5010399;28;20044;-70
2023/08/29 01:06:35;;;;;;;11.93;4.70;;;;;;;22.95;nan;99205.09;5028063;28;20021;-69
2023/08/29 01:09:00;;;;;;;9.95;4.85;;;;;;;23.01;nan;99170.75;5024983;28;20092;-69
2023/08/29 01:11:41;;;;;;;7.05;4.47;;;;;;;23.06;nan;99183.97;5010776;28;20037;-70
2023/08/29 01:14:19;;;;;;;10.00;5.20;;;;;;;23.12;nan;99169.19;4999986;28;20033;-69
2023/08/29 01:17:06;;;;;;;9.73;4.65;;;;;;;23.13;nan;99174.22;5009171;28;20029;-69
2023/08/29 01:19:33;;;;;;;12.00;4.80;;;;;;;23.21;nan;99150.28;5026988;28;20048;-69
2023/08/29 01:22:05;;;;;;;13.45;4.18;;;;;;;23.24;nan;99184.50;5026447;28;20025;-70
2023/08/29 01:24:36;;;;;;;10.73;3.97;;;;;;;23.24;nan;99166.47;5025493;28;20496;-69
2023/08/29 01:27:02;;;;;;;12.02;4.80;;;;;;;23.28;nan;99164.69;4999849;28;20022;-70
2023/08/29 01:29:28;;;;;;;9.32;3.92;;;;;;;23.29;nan;99203.84;5012608;28;20057;-69
2023/08/29 01:31:55;;;;;;;14.23;4.38;;;;;;;23.36;nan;99179.09;5028233;28;20049;-70
2023/08/29 01:34:21;;;;;;;5.82;3.85;;;;;;;23.41;nan;99239.88;5026320;28;20025;-69
2023/08/29 01:36:47;;;;;;;10.00;5.22;;;;;;;23.40;nan;99136.22;5027347;28;20353;-69
2023/08/29 01:39:13;;;;;;;9.13;4.50;;;;;;;23.38;nan;99308.50;5011467;28;20121;-69
2023/08/29 01:41:38;;;;;;;8.60;4.18;;;;;;;23.32;nan;99208.56;5009518;28;20127;-69
2023/08/29 01:44:04;;;;;;;13.25;4.47;;;;;;;23.30;nan;99204.66;5026167;28;20448;-69
2023/08/29 01:46:30;;;;;;;9.25;4.45;;;;;;;23.33;nan;99185.94;5026800;28;20040;-69
2023/08/29 01:49:01;;;;;;;6.25;4.07;;;;;;;23.32;nan;99184.38;5027507;28;20032;-69
2023/08/29 01:51:27;;;;;;;9.52;4.05;;;;;;;23.35;nan;99210.56;5026799;28;20520;-69
2023/08/29 01:53:53;;;;;;;10.27;4.25;;;;;;;23.33;nan;99198.59;5028495;28;20100;-70
2023/08/29 01:56:21;;;;;;;10.70;4.60;;;;;;;23.33;nan;99206.66;5026339;28;20028;-70
2023/08/29 01:58:48;;;;;;;8.70;4.60;;;;;;;23.33;nan;99206.66;5027725;28;20021;-69
2023/08/29 02:01:14;;;;;;;9.57;4.75;;;;;;;23.28;nan;99170.06;5006686;28;20030;-70
2023/08/29 02:03:40;;;;;;;9.52;4.65;;;;;;;23.33;nan;99228.13;5009239;28;20095;-70
2023/08/29 02:06:06;;;;;;;7.40;4.20;;;;;;;23.30;nan;99215.38;5024964;28;20050;-70
2023/08/29 02:08:32;;;;;;;10.23;4.50;;;;;;;23.25;nan;99216.41;5027158;28;20028;-69
2023/08/29 02:10:57;;;;;;;9.35;4.20;;;;;;;23.19;nan;99225.03;5008868;28;20339;-69
2023/08/29 02:13:23;;;;;;;8.95;4.68;;;;;;;23.18;nan;99231.50;5027045;28;20525;-69
2023/08/29 02:15:48;;;;;;;8.20;4.22;;;;;;;23.12;nan;99178.03;5026497;28;20060;-70
2023/08/29 02:18:14;;;;;;;7.35;4.38;;;;;;;23.11;nan;99205.22;5023851;28;20157;-69
2023/08/29 02:20:40;;;;;;;8.68;4.57;;;;;;;23.07;nan;99221.22;5026506;28;20405;-69
2023/08/29 02:23:05;;;;;;;11.23;4.95;;;;;;;23.07;nan;99226.59;5027374;28;20029;-68
2023/08/29 02:25:31;;;;;;;10.98;4.53;;;;;;;23.08;nan;99230.06;5006297;28;20376;-69
2023/08/29 02:27:56;;;;;;;9.40;4.22;;;;;;;23.04;nan;99246.06;5027523;28;20021;-68
2023/08/29 02:30:21;;;;;;;10.32;4.65;;;;;;;;;;5026086;28;20029;-70
2023/08/29 02:32:47;;;;;;;11.27;4.63;;;;;;;23.02;nan;99183.09;5008573;28;20140;-69
2023/08/29 02:35:12;;;;;;;13.93;4.90;;;;;;;23.02;nan;99242.16;5024710;28;20026;-69
2023/08/29 02:37:38;;;;;;;11.85;4.72;;;;;;;22.97;nan;99232.41;5025814;28;20032;-68
2023/08/29 02:40:13;;;;;;;10.30;4.63;;;;;;;22.91;nan;99233.72;5026556;28;20021;-69
2023/08/29 02:42:38;;;;;;;13.77;4.78;;;;;;;22.91;nan;99207.69;5026457;28;20025;-70
2023/08/29 02:45:04;;;;;;;10.27;4.60;;;;;;;22.84;nan;99289.88;5025153;28;20685;-69
2023/08/29 02:47:29;;;;;;;8.65;4.65;;;;;;;22.87;nan;99184.53;5026203;28;20412;-69
2023/08/29 02:49:55;;;;;;;12.13;4.72;;;;;;;22.84;nan;99161.84;5026139;28;20021;-68
2023/08/29 02:52:20;;;;;;;17.25;4.80;;;;;;;22.77;nan;99258.22;5030035;28;20080;-69
2023/08/29 02:54:46;;;;;;;11.13;4.63;;;;;;;22.82;nan;99190.91;5030225;28;20048;-69
2023/08/29 02:57:11;;;;;;;14.70;4.60;;;;;;;;;;5030262;28;20051;-68
2023/08/29 02:59:36;;;;;;;10.00;5.07;;;;;;;;;;5029876;28;20068;-70
2023/08/29 03:02:03;;;;;;;11.67;4.90;;;;;;;22.56;nan;99171.69;5031168;28;20017;-69
2023/08/29 03:04:30;;;;;;;9.27;4.90;;;;;;;22.46;nan;99197.03;5029855;28;20021;-69
2023/08/29 03:06:55;;;;;;;17.23;4.80;;;;;;;;;;5013073;28;20100;-69
2023/08/29 03:09:21;;;;;;;16.03;5.83;;;;;;;22.51;nan;99137.81;5027325;28;20737;-69
2023/08/29 03:11:46;;;;;;;11.98;5.40;;;;;;;22.53;nan;99167.75;5011764;28;20299;-70
2023/08/29 03:14:12;;;;;;;9.73;4.93;;;;;;;22.48;nan;99229.66;5029869;28;20107;-69
2023/08/29 03:16:37;;;;;;;15.40;5.05;;;;;;;22.36;nan;99237.69;5029978;28;20022;-70
2023/08/29 03:19:03;;;;;;;10.60;5.22;;;;;;;22.28;nan;99217.91;5027614;28;20108;-70
2023/08/29 03:21:28;;;;;;;11.18;5.75;;;;;;;22.21;nan;99264.00;5030635;28;20052;-68
2023/08/29 03:23:53;;;;;;;10.68;4.93;;;;;;;22.14;nan;99204.75;5010874;28;20017;-69
2023/08/29 03:26:19;;;;;;;10.32;4.90;;;;;;;22.05;nan;99187.97;5010341;28;20028;-69
2023/08/29 03:28:45;;;;;;;8.23;4.45;;;;;;;21.89;nan;99158.34;5011263;28;20080;-69
2023/08/29 03:31:16;;;;;;;12.20;5.20;;;;;;;21.96;nan;99187.28;5009183;28;20125;-69
2023/08/29 03:33:43;;;;;;;10.18;4.78;;;;;;;21.97;nan;99211.06;5029751;28;20391;-69
2023/08/29 03:36:09;;;;;;;8.40;4.32;;;;;;;21.98;nan;99195.75;5029226;28;20440;-68
2023/08/29 03:38:36;;;;;;;10.43;5.30;;;;;;;21.98;nan;99183.16;5029668;28;20510;-69
2023/08/29 03:41:03;;;;;;;18.23;5.53;;;;;;;21.98;nan;99164.41;5011083;28;20029;-69
2023/08/29 03:43:30;;;;;;;15.75;5.22;;;;;;;21.99;nan;99203.47;5027887;28;20033;-69
2023/08/29 03:46:06;;;;;;;10.70;6.05;;;;;;;21.96;nan;99196.13;5012604;28;20753;-69
2023/08/29 03:48:33;;;;;;;14.52;5.53;;;;;;;21.91;nan;99190.97;5004716;28;20033;-70
2023/08/29 03:50:58;;;;;;;14.50;5.35;;;;;;;21.91;nan;99225.81;5029088;28;20565;-69
2023/08/29 03:53:24;;;;;;;11.55;5.30;;;;;;;21.93;nan;99201.34;5010907;28;20030;-69
2023/08/29 03:55:50;;;;;;;14.20;5.45;;;;;;;21.93;nan;99274.47;5029302;28;20423;-70
2023/08/29 03:58:15;;;;;;;8.98;5.25;;;;;;;21.92;nan;99218.53;5028233;28;20029;-70
2023/08/29 04:00:42;;;;;;;10.45;5.38;;;;;;;21.89;nan;99206.59;5027262;28;20104;-69
2023/08/29 04:03:07;;;;;;;9.05;5.28;;;;;;;21.84;nan;99207.56;5026817;28;20041;-70
2023/08/29 04:05:37;;;;;;;16.17;5.55;;;;;;;21.79;nan;99161.44;5029384;28;20040;-69
2023/08/29 04:08:06;;;;;;;7.78;5.68;;;;;;;21.82;nan;99230.44;5009397;28;20032;-69
2023/08/29 04:10:40;;;;;;;;;;;;;;;21.71;nan;99151.56;5030168;28;20037;-68
2023/08/29 04:13:06;;;;;;;11.75;5.68;;;;;;;21.61;nan;99128.66;5027742;28;19917;-69
2023/08/29 04:15:33;;;;;;;19.27;6.72;;;;;;;21.64;nan;99133.34;5028415;28;20036;-69
2023/08/29 04:17:59;;;;;;;17.67;6.10;;;;;;;21.61;nan;99166.16;5028288;28;20060;-69
2023/08/29 04:20:25;;;;;;;17.55;6.22;;;;;;;21.71;nan;99240.00;5029291;28;20103;-69
2023/08/29 04:22:51;;;;;;;14.05;6.50;;;;;;;21.68;nan;99201.25;5028461;28;20626;-71
2023/08/29 04:25:17;;;;;;;10.65;5.90;;;;;;;21.73;nan;99184.97;5029421;28;20025;-71
2023/08/29 04:27:43;;;;;;;14.05;6.22;;;;;;;21.55;nan;99200.41;5029057;28;20037;-69
2023/08/29 04:30:09;;;;;;;13.40;6.47;;;;;;;21.73;nan;99211.75;5027918;28;20029;-70
2023/08/29 04:32:36;;;;;;;26.35;6.85;;;;;;;21.78;nan;99224.94;5027781;28;20648;-71
2023/08/29 04:35:04;;;;;;;17.90;6.85;;;;;;;21.76;nan;99216.44;5028901;28;20379;-70
2023/08/29 04:37:29;;;;;;;15.88;6.90;;;;;;;;;;5028839;28;20028;-70
2023/08/29 04:39:54;;;;;;;16.87;6.80;;;;;;;21.45;nan;99137.31;5027852;28;20021;-68
2023/08/29 04:42:20;;;;;;;18.38;6.78;;;;;;;21.49;nan;99166.09;5029530;28;20308;-69
2023/08/29 04:44:45;;;;;;;15.65;5.25;;;;;;;21.42;nan;99116.53;5027049;28;20017;-70
2023/08/29 04:47:11;;;;;;;12.25;5.45;;;;;;;21.58;nan;99132.00;5028193;28;20452;-70
2023/08/29 04:49:36;;;;;;;10.85;5.15;;;;;;;21.67;nan;99135.38;5024424;28;20056;-70
2023/08/29 04:52:02;;;;;;;17.23;5.63;;;;;;;21.72;nan;99145.13;5027885;28;20040;-69
2023/08/29 04:54:27;;;;;;;12.55;6.00;;;;;;;21.71;nan;99162.28;5027477;28;20104;-70
2023/08/29 04:56:52;;;;;;;17.60;6.45;;;;;;;21.66;nan;99184.72;5028007;28;20033;-69
2023/08/29 04:59:18;;;;;;;11.90;6.38;;;;;;;;;;5027964;28;20795;-71
2023/08/29 05:01:43;;;;;;;12.03;6.37;;;;;;;21.64;nan;99118.06;5028568;28;20057;-70
2023/08/29 05:04:09;;;;;;;14.95;7.03;;;;;;;;;;5028154;28;20635;-70
2023/08/29 05:06:35;;;;;;;19.38;7.03;;;;;;;21.61;nan;99134.78;5025928;28;20518;-70
2023/08/29 05:09:01;;;;;;;18.95;7.53;;;;;;;21.61;nan;99171.53;5028377;28;20025;-70
2023/08/29 05:11:26;;;;;;;18.08;6.88;;;;;;;21.59;nan;99139.69;5021552;28;20029;-69
2023/08/29 05:13:51;;;;;;;18.02;8.05;;;;;;;21.60;nan;99159.25;5023373;28;20509;-69
2023/08/29 05:16:17;;;;;;;12.70;7.23;;;;;;;21.53;nan;99140.25;5023571;28;20029;-70
2023/08/29 05:18:42;;;;;;;17.50;7.95;;;;;;;21.55;nan;99170.94;5026661;28;20270;-69
2023/08/29 05:21:07;;;;;;;12.40;6.32;;;;;;;21.53;nan;99161.66;5023088;28;20079;-70
2023/08/29 05:23:33;;;;;;;14.75;7.72;;;;;;;21.55;nan;99154.06;5025887;28;20041;-69
2023/08/29 05:25:58;;;;;;;12.63;6.68;;;;;;;21.57;nan;99181.31;5025390;28;20026;-69
2023/08/29 05:28:23;;;;;;;11.65;6.35;;;;;;;21.57;nan;99229.53;5022073;28;20034;-71
2023/08/29 05:30:49;;;;;;;13.32;6.68;;;;;;;21.54;nan;99176.63;5024437;28;20093;-71
2023/08/29 05:33:14;;;;;;;10.95;6.15;;;;;;;;;;5025542;28;20083;-70
2023/08/29 05:35:39;;;;;;;13.13;6.87;;;;;;;;;;5027299;28;20026;-70
2023/08/29 05:38:05;;;;;;;13.47;5.63;;;;;;;21.51;nan;99124.50;5024347;28;20386;-69
2023/08/29 05:40:30;;;;;;;10.35;5.65;;;;;;;21.59;nan;99130.88;5027466;28;20143;-69
2023/08/29 05:42:55;;;;;;;9.15;5.60;;;;;;;21.60;nan;99210.94;5028074;28;20021;-71
2023/08/29 05:45:21;;;;;;;13.27;6.97;;;;;;;21.62;nan;99245.41;5024437;28;20022;-69
2023/08/29 05:47:46;;;;;;;13.55;6.15;;;;;;;21.61;nan;99183.00;5025073;28;20076;-71
2023/08/29 05:50:11;;;;;;;17.95;6.50;;;;;;;;;;5027086;28;20460;-71
2023/08/29 05:52:37;;;;;;;14.13;6.93;;;;;;;21.69;nan;99189.41;5025408;28;20030;-70
2023/08/29 05:55:03;;;;;;;14.18;7.53;;;;;;;21.63;nan;99212.16;5006668;28;20309;-69
2023/08/29 05:57:29;;;;;;;9.27;6.55;;;;;;;21.72;nan;99171.91;5024661;28;20022;-68
2023/08/29 05:59:54;;;;;;;12.55;7.65;;;;;;;21.66;nan;99150.66;5009530;28;20137;-69
2023/08/29 06:02:20;;;;;;;20.17;7.90;;;;;;;21.52;nan;99173.47;5027140;28;20487;-68
2023/08/29 06:04:46;;;;;;;14.57;6.97;;;;;;;;;;5027488;28;20110;-71
2023/08/29 06:07:12;;;;;;;17.35;7.63;;;;;;;21.50;nan;99164.97;5008876;28;20454;-70
2023/08/29 06:09:37;;;;;;;15.82;7.97;;;;;;;21.30;nan;99209.38;5026257;28;20033;-70
2023/08/29 06:12:03;;;;;;;15.38;8.55;;;;;;;21.07;nan;99168.72;5016414;28;20053;-69
2023/08/29 06:14:29;;;;;;;19.05;8.95;;;;;;;20.91;nan;99176.56;5004991;28;20042;-70
2023/08/29 06:16:54;;;;;;;18.33;9.25;;;;;;;;;;5027066;28;20045;-69
2023/08/29 06:19:19;;;;;;;19.67;8.88;;;;;;;21.01;nan;99160.91;5022502;28;20506;-69
2023/08/29 06:21:45;;;;;;;18.30;8.80;;;;;;;20.89;nan;99106.53;5026603;28;20018;-69
2023/08/29 06:24:10;;;;;;;18.65;9.00;;;;;;;20.85;nan;99114.41;5024813;28;20103;-69
2023/08/29 06:26:37;;;;;;;17.70;8.05;;;;;;;20.87;nan;99130.91;5024627;28;20028;-69
2023/08/29 06:29:03;;;;;;;14.38;7.60;;;;;;;20.90;nan;99134.84;5022719;28;20026;-69
2023/08/29 06:31:28;;;;;;;10.52;7.50;;;;;;;20.95;nan;99215.72;5024797;28;20029;-69
2023/08/29 06:33:53;;;;;;;14.88;7.15;;;;;;;21.01;nan;99160.13;5012171;28;20841;-68
2023/08/29 06:36:19;;;;;;;11.73;7.15;;;;;;;21.01;nan;99118.06;5013940;28;20036;-67
2023/08/29 06:38:44;;;;;;;12.77;7.10;;;;;;;21.02;nan;99204.50;5017465;28;20037;-70
2023/08/29 06:41:09;;;;;;;12.35;6.60;;;;;;;21.01;nan;99197.59;5014073;28;20377;-68
2023/08/29 06:43:35;;;;;;;15.13;7.03;;;;;;;20.93;nan;99199.22;4996800;28;20022;-70
2023/08/29 06:46:00;;;;;;;8.48;6.35;;;;;;;20.89;nan;99189.47;5014675;28;20602;-70
2023/08/29 06:48:26;;;;;;;14.80;7.18;;;;;;;20.99;nan;99211.28;5017687;28;20029;-70
2023/08/29 06:50:51;;;;;;;10.95;7.22;;;;;;;20.91;nan;99120.38;5026448;28;20018;-69
2023/08/29 06:53:17;;;;;;;12.23;7.50;;;;;;;21.09;nan;99201.31;5023449;28;20128;-70
2023/08/29 06:55:42;;;;;;;52.00;14.77;;;;;;;21.09;nan;99238.78;5024852;28;20032;-71
2023/08/29 06:58:07;;;;;;;12.48;7.45;;;;;;;21.10;nan;99249.19;5024431;28;20111;-70
2023/08/29 07:00:34;;;;;;;8.13;6.45;;;;;;;21.10;nan;99232.34;5026538;28;20030;-69
2023/08/29 07:03:00;;;;;;;13.32;7.28;;;;;;;21.11;nan;99274.06;5007680;28;20144;-70
2023/08/29 07:05:26;;;;;;;12.15;7.68;;;;;;;21.02;nan;99282.91;5023493;28;20037;-69
2023/08/29 07:07:52;;;;;;;11.48;7.50;;;;;;;21.04;nan;99341.47;5024648;28;20068;-70
2023/08/29 07:10:17;;;;;;;15.48;8.75;;;;;;;21.02;nan;99317.72;5025135;28;20174;-70
2023/08/29 07:12:42;;;;;;;18.35;9.63;;;;;;;20.98;nan;99307.97;5024913;28;20045;-70
2023/08/29 07:15:08;;;;;;;20.52;9.45;;;;;;;20.94;nan;99315.84;5025169;28;20041;-69
2023/08/29 07:17:34;;;;;;;16.50;9.80;;;;;;;20.89;nan;99364.19;5005905;28;20026;-70
2023/08/29 07:19:59;;;;;;;14.68;9.18;;;;;;;20.76;nan;99379.34;5024344;28;20034;-70
2023/08/29 07:22:25;;;;;;;14.80;9.05;;;;;;;20.78;nan;99312.09;5021286;28;20365;-71
2023/08/29 07:24:53;;;;;;;17.95;9.98;;;;;;;20.72;nan;99324.09;5024329;28;20026;-70
2023/08/29 07:27:19;;;;;;;16.80;9.75;;;;;;;20.77;nan;99342.66;5024659;28;20072;-71
2023/08/29 07:29:44;;;;;;;18.13;9.27;;;;;;;20.74;nan;99344.09;5022923;28;20041;-70
2023/08/29 07:32:10;;;;;;;17.80;9.60;;;;;;;20.76;nan;99351.81;5020479;28;20029;-70
2023/08/29 07:34:36;;;;;;;12.50;9.05;;;;;;;20.74;nan;99343.31;5006919;28;20028;-69
2023/08/29 07:37:01;;;;;;;15.80;8.73;;;;;;;20.72;nan;99308.06;5009556;28;20025;-70
2023/08/29 07:39:26;;;;;;;15.93;8.70;;;;;;;;;;5030405;28;20075;-69
2023/08/29 07:41:52;;;;;;;13.27;8.15;;;;;;;20.72;nan;99382.97;5005345;28;20403;-71
2023/08/29 07:44:19;;;;;;;17.52;8.82;;;;;;;20.69;nan;99415.72;5028337;28;20503;-71
2023/08/29 07:46:44;;;;;;;18.60;9.27;;;;;;;20.64;nan;99360.47;5010212;28;20036;-69
2023/08/29 07:49:13;;;;;;;16.35;8.73;;;;;;;20.62;nan;99354.66;5027868;28;20037;-69
2023/08/29 07:51:41;;;;;;;20.70;9.10;;;;;;;20.55;nan;99352.44;5027757;28;20054;-69
2023/08/29 07:54:07;;;;;;;17.73;9.80;;;;;;;20.57;nan;99363.63;5029215;28;20034;-69
2023/08/29 07:56:32;;;;;;;17.05;8.48;;;;;;;20.55;nan;99335.59;5026542;28;20038;-70
2023/08/29 07:58:57;;;;;;;11.88;8.70;;;;;;;20.53;nan;99333.22;5029083;28;20039;-69
2023/08/29 08:01:23;;;;;;;14.07;8.93;;;;;;;20.56;nan;99354.00;5028526;28;20017;-69
2023/08/29 08:03:48;;;;;;;12.75;8.85;;;;;;;20.54;nan;99353.53;5028738;28;20036;-69
2023/08/29 08:06:14;;;;;;;17.52;9.02;;;;;;;20.52;nan;99369.13;5010257;28;20534;-69
2023/08/29 08:08:39;;;;;;;14.48;9.43;;;;;;;;;;5029225;28;20021;-69
2023/08/29 08:11:05;;;;;;;21.33;9.13;;;;;;;;;;5026234;28;20037;-70
2023/08/29 08:13:30;;;;;;;20.15;10.00;;;;;;;;;;5029507;28;20717;-69
2023/08/29 08:15:56;;;;;;;14.05;8.95;;;;;;;20.54;nan;99419.59;5028598;28;20029;-68
2023/08/29 08:18:21;;;;;;;16.15;9.40;;;;;;;20.58;nan;99380.44;5018583;28;20029;-69
2023/08/29 08:20:46;;;;;;;14.05;9.68;;;;;;;20.54;nan;99369.59;5010966;28;20025;-69
2023/08/29 08:23:12;;;;;;;17.25;9.75;;;;;;;20.62;nan;99369.91;5027271;28;20036;-69
2023/08/29 08:25:37;;;;;;;15.52;10.02;;;;;;;20.59;nan;99390.84;5028266;28;20148;-69
2023/08/29 08:28:05;;;;;;;20.05;9.85;;;;;;;20.65;nan;99390.69;5024782;28;20033;-70
2023/08/29 08:30:31;;;;;;;18.95;9.35;;;;;;;20.62;nan;99434.13;5023271;28;20037;-69
2023/08/29 08:32:56;;;;;;;20.13;9.43;;;;;;;20.69;nan;99335.44;5028339;28;20026;-69
2023/08/29 08:35:21;;;;;;;22.98;9.98;;;;;;;20.70;nan;99374.47;5027260;28;20052;-69
2023/08/29 08:37:47;;;;;;;27.02;10.13;;;;;;;;;;5026795;28;20022;-70
2023/08/29 08:40:14;;;;;;;19.83;10.50;;;;;;;20.68;nan;99369.41;5026468;28;20482;-70
2023/08/29 08:42:40;;;;;;;19.77;8.98;;;;;;;20.72;nan;99383.75;5029519;28;20044;-69
2023/08/29 08:45:07;;;;;;;12.48;9.68;;;;;;;20.74;nan;99378.84;5025924;28;20038;-73
2023/08/29 08:47:35;;;;;;;16.73;10.25;;;;;;;20.76;nan;99416.00;5026043;28;20436;-70
2023/08/29 08:50:01;;;;;;;17.15;9.95;;;;;;;20.80;nan;99414.25;5023825;28;20033;-71
2023/08/29 08:55:22;;;;;;;17.13;9.48;;;;;;;20.90;nan;99399.75;4987239;28;20485;-74
2023/08/29 08:57:50;;;;;;;16.67;10.40;;;;;;;20.91;nan;99396.78;5026840;28;20044;-72
2023/08/29 09:00:16;;;;;;;12.95;9.35;;;;;;;20.93;nan;99373.16;5027683;28;20029;-72
2023/08/29 09:02:43;;;;;;;16.35;9.93;;;;;;;20.95;nan;99368.28;5025831;28;20095;-73
2023/08/29 09:05:08;;;;;;;14.40;9.80;;;;;;;20.98;nan;99370.31;5022874;28;20040;-72
2023/08/29 09:07:40;;;;;;;21.25;10.15;;;;;;;21.01;nan;99368.88;5025690;28;20434;-72
2023/08/29 09:10:15;;;;;;;16.67;9.40;;;;;;;20.98;nan;99372.97;5027473;28;20025;-71
2023/08/29 09:12:55;;;;;;;12.15;9.27;;;;;;;20.95;nan;99365.59;5007350;28;20049;-70
2023/08/29 09:15:22;;;;;;;19.58;10.10;;;;;;;20.91;nan;99348.59;5007319;28;20116;-72
2023/08/29 09:17:51;;;;;;;16.85;10.45;;;;;;;20.89;nan;99342.78;5025987;28;20112;-72
2023/08/29 09:20:17;;;;;;;16.13;9.90;;;;;;;20.98;nan;99364.94;5023997;28;20025;-71
2023/08/29 09:22:44;;;;;;;14.52;10.02;;;;;;;20.95;nan;99370.94;5025929;28;20033;-69
2023/08/29 09:25:11;;;;;;;19.15;9.98;;;;;;;20.93;nan;99365.13;5027301;28;20376;-69
2023/08/29 09:27:42;;;;;;;14.40;8.85;;;;;;;20.91;nan;99337.13;5026719;28;20495;-68
2023/08/29 09:30:13;;;;;;;14.57;9.93;;;;;;;21.05;nan;99345.72;5016006;28;20044;-69
2023/08/29 09:32:43;;;;;;;17.35;10.05;;;;;;;20.94;nan;99313.16;5025748;28;20109;-68
2023/08/29 09:35:12;;;;;;;21.50;10.05;;;;;;;21.10;nan;99331.38;5025672;28;20727;-68
2023/08/29 09:37:50;;;;;;;;;;;;;;;21.14;nan;99340.31;5026711;28;20045;-70
2023/08/29 09:40:19;;;;;;;18.87;10.57;;;;;;;21.01;nan;99283.22;5004714;28;20002;-71
2023/08/29 09:43:01;;;;;;;16.10;10.10;;;;;;;21.22;nan;99302.03;5021024;28;20044;-70
2023/08/29 09:45:33;;;;;;;17.13;10.40;;;;;;;21.20;nan;99280.94;5026284;28;20038;-68
2023/08/29 09:48:02;;;;;;;21.77;10.00;;;;;;;21.25;nan;99360.28;5023835;28;20013;-69
2023/08/29 09:50:28;;;;;;;19.45;9.13;;;;;;;21.33;nan;99350.66;5025933;28;20072;-69
2023/08/29 09:52:56;;;;;;;20.08;9.35;;;;;;;21.35;nan;99276.91;5009034;28;20041;-70
2023/08/29 09:55:23;;;;;;;14.55;9.02;;;;;;;21.41;nan;99294.41;5027330;28;20052;-69
2023/08/29 09:57:52;;;;;;;14.25;9.48;;;;;;;21.42;nan;99340.72;5020767;28;20029;-71
2023/08/29 10:00:19;;;;;;;;;;;;;;;21.49;nan;99356.28;5005896;28;20048;-71
2023/08/29 10:02:47;;;;;;;23.85;9.35;;;;;;;21.50;nan;99347.94;5025457;28;20171;-71
2023/08/29 10:05:13;;;;;;;11.80;9.10;;;;;;;21.57;nan;99336.69;5026706;28;20041;-72
2023/08/29 10:08:00;;;;;;;18.48;9.05;;;;;;;21.61;nan;99341.06;5026063;28;20033;-69
2023/08/29 10:10:26;;;;;;;15.27;8.65;;;;;;;21.67;nan;99339.78;5016227;28;20025;-71
2023/08/29 10:12:54;;;;;;;20.48;9.63;;;;;;;21.69;nan;99344.81;5009346;28;20579;-71
2023/08/29 10:15:20;;;;;;;26.98;9.43;;;;;;;21.72;nan;99338.03;5024491;28;20101;-72
2023/08/29 10:17:47;;;;;;;13.90;8.50;;;;;;;21.81;nan;99336.06;5026680;28;20479;-72
2023/08/29 10:20:13;;;;;;;11.73;8.88;;;;;;;21.91;nan;99345.59;5009696;28;20100;-71
2023/08/29 10:22:45;;;;;;;14.82;9.40;;;;;;;21.99;nan;99339.41;5026440;28;20060;-70
2023/08/29 10:25:11;;;;;;;13.35;8.77;;;;;;;22.01;nan;99347.91;5025443;28;20040;-72
2023/08/29 10:27:37;;;;;;;12.80;8.55;;;;;;;21.88;nan;99320.25;5025806;28;20045;-72
2023/08/29 10:30:03;;;;;;;18.15;8.88;;;;;;;22.09;nan;99349.75;5026530;28;20789;-71
2023/08/29 10:32:30;;;;;;;12.45;8.43;;;;;;;22.20;nan;99376.97;5026362;28;20021;-71
2023/08/29 10:34:55;;;;;;;16.52;8.68;;;;;;;22.29;nan;99391.09;5026000;28;20053;-71
2023/08/29 10:37:21;;;;;;;12.70;7.95;;;;;;;22.31;nan;99388.88;5026343;28;20100;-71
2023/08/29 10:39:50;;;;;;;11.68;8.00;;;;;;;22.38;nan;99383.75;5026308;28;20030;-71
2023/08/29 10:42:16;;;;;;;13.57;8.65;;;;;;;22.39;nan;99365.78;5007298;28;20032;-71
2023/08/29 10:44:46;;;;;;;18.45;8.30;;;;;;;22.40;nan;99356.63;5026679;28;20029;-72
2023/08/29 10:47:30;;;;;;;11.00;7.82;;;;;;;22.51;nan;99369.31;5009382;28;20407;-70
2023/08/29 10:50:07;;;;;;;16.35;8.13;;;;;;;22.59;nan;99369.56;5006477;28;20017;-71
2023/08/29 10:52:41;;;;;;;13.20;8.23;;;;;;;22.65;nan;99368.22;5024805;28;20562;-71
2023/08/29 10:55:31;;;;;;;15.30;8.13;;;;;;;22.65;nan;99347.56;5024961;28;20068;-72
2023/08/29 10:57:58;;;;;;;15.85;7.82;;;;;;;22.78;nan;99340.31;5025799;28;20032;-71
2023/08/29 11:00:55;;;;;;;11.15;8.40;;;;;;;22.86;nan;99346.69;5009337;28;20029;-71
2023/08/29 11:03:44;;;;;;;12.55;8.00;;;;;;;22.94;nan;99337.78;5007139;28;20566;-70
2023/08/29 11:06:10;;;;;;;16.55;8.20;;;;;;;22.85;nan;99319.06;5003643;28;20092;-70
2023/08/29 11:08:35;;;;;;;17.92;8.30;;;;;;;23.03;nan;99325.03;5006035;28;20479;-70
2023/08/29 11:11:13;;;;;;;10.68;6.82;;;;;;;23.11;nan;99321.47;5025568;28;20040;-70
2023/08/29 11:13:57;;;;;;;14.60;7.65;;;;;;;23.17;nan;99324.72;5028262;28;20048;-70
2023/08/29 11:16:24;;;;;;;15.15;7.60;;;;;;;23.19;nan;99330.53;5028769;28;20021;-70
2023/08/29 11:18:59;;;;;;;15.07;7.80;;;;;;;23.20;nan;99312.50;5028462;28;20025;-70
2023/08/29 11:21:25;;;;;;;11.02;7.38;;;;;;;23.24;nan;99273.13;5029376;28;20033;-70
2023/08/29 11:23:51;;;;;;;10.88;7.60;;;;;;;23.28;nan;99300.91;5028844;28;20036;-70
2023/08/29 11:26:16;;;;;;;14.45;7.75;;;;;;;23.33;nan;99306.81;5011657;28;20056;-71
2023/08/29 11:28:45;;;;;;;13.75;7.40;;;;;;;23.40;nan;99289.34;5029875;28;20453;-71
2023/08/29 11:31:12;;;;;;;15.60;8.35;;;;;;;23.44;nan;99280.28;5029117;28;20109;-71
2023/08/29 11:33:38;;;;;;;13.00;7.20;;;;;;;23.49;nan;99266.63;5020325;28;20025;-69
2023/08/29 11:36:06;;;;;;;15.48;7.30;;;;;;;;;;5027204;28;20510;-72
2023/08/29 11:38:33;;;;;;;16.38;7.18;;;;;;;23.56;nan;99304.44;5024119;28;20044;-72
2023/08/29 11:41:01;;;;;;;13.50;6.88;;;;;;;23.60;nan;99309.91;5022502;28;20036;-71
2023/08/29 11:43:28;;;;;;;12.45;6.78;;;;;;;23.67;nan;99317.41;5024823;28;20391;-69
2023/08/29 11:45:57;;;;;;;11.65;6.80;;;;;;;23.68;nan;99284.81;5010975;28;20029;-71
2023/08/29 11:48:24;;;;;;;12.68;6.15;;;;;;;23.75;nan;99309.25;5026483;28;20028;-69
2023/08/29 11:50:58;;;;;;;11.63;7.72;;;;;;;23.80;nan;99308.25;5030386;28;20379;-71
2023/08/29 11:53:29;;;;;;;11.25;6.75;;;;;;;23.77;nan;99317.75;5007517;28;20084;-70
2023/08/29 11:55:54;;;;;;;10.88;7.15;;;;;;;23.87;nan;99283.44;5029003;28;20036;-70